Time;durP1;ratioP1;P1;durP2;ratioP2;P2;SDS_P1;SDS_P2;PMS_P1;PMS_P2;Temp;Humidity;BMP_temperature;BMP_pressure;BME280_temperature;BME280_humidity;BME280_pressure;Samples;Min_cycle;Max_cycle;Signal;HPM_P1;HPM_P2
2022/05/27 00:01:20;;;;;;;1.75;0.90;;;17.70;93.20;;;;;;4996595;28;20383;-76
2022/05/27 00:03:53;;;;;;;3.17;0.73;;;17.60;93.40;;;;;;4994700;28;20101;-76
2022/05/27 00:06:20;;;;;;;2.38;1.00;;;17.60;93.60;;;;;;4995326;28;20064;-75
2022/05/27 00:08:48;;;;;;;1.20;0.60;;;17.60;93.60;;;;;;4992695;28;20042;-75
2022/05/27 00:11:18;;;;;;;4.35;1.45;;;17.50;93.60;;;;;;4996132;28;20587;-75
2022/05/27 00:13:45;;;;;;;1.33;0.70;;;17.50;93.60;;;;;;4989986;28;20247;-75
2022/05/27 00:16:11;;;;;;;0.68;0.68;;;17.40;93.80;;;;;;4996867;28;20354;-75
2022/05/27 00:18:37;;;;;;;0.70;0.70;;;17.40;93.80;;;;;;4992215;28;20122;-76
2022/05/27 00:21:04;;;;;;;;;;;17.40;93.90;;;;;;5002210;28;20864;-75
2022/05/27 00:23:32;;;;;;;1.10;0.80;;;17.30;94.00;;;;;;4998549;28;19913;-76
2022/05/27 00:25:59;;;;;;;2.22;0.80;;;17.30;94.10;;;;;;5003770;28;20057;-76
2022/05/27 00:28:26;;;;;;;1.42;0.70;;;17.30;94.10;;;;;;4997972;28;20025;-76
2022/05/27 00:30:52;;;;;;;1.13;0.70;;;17.30;94.20;;;;;;5001673;28;20080;-75
2022/05/27 00:33:21;;;;;;;3.50;0.68;;;17.20;94.40;;;;;;5001526;28;20014;-75
2022/05/27 00:35:48;;;;;;;0.80;0.80;;;17.20;94.50;;;;;;4994650;28;20041;-75
2022/05/27 00:38:13;;;;;;;0.80;0.77;;;17.20;94.40;;;;;;5000753;28;20068;-75
2022/05/27 00:40:43;;;;;;;0.50;0.50;;;17.10;94.50;;;;;;4995798;28;20510;-76
2022/05/27 00:43:15;;;;;;;0.95;0.70;;;17.10;94.50;;;;;;5001797;28;20022;-75
2022/05/27 00:45:44;;;;;;;1.10;1.00;;;17.00;94.60;;;;;;4992914;28;20093;-75
2022/05/27 00:48:20;;;;;;;1.63;0.60;;;17.00;94.70;;;;;;5000158;28;20028;-75
2022/05/27 00:50:48;;;;;;;0.75;0.75;;;17.00;94.80;;;;;;4995289;28;20026;-75
2022/05/27 00:53:23;;;;;;;1.33;0.80;;;17.00;94.90;;;;;;5000503;28;20701;-75
2022/05/27 00:55:54;;;;;;;0.77;0.77;;;17.00;95.20;;;;;;4996867;28;20029;-75
2022/05/27 00:58:49;;;;;;;2.22;0.90;;;17.10;95.30;;;;;;4996494;28;20095;-75
2022/05/27 01:01:16;;;;;;;0.85;0.55;;;17.10;95.10;;;;;;4998454;28;20019;-76
2022/05/27 01:03:43;;;;;;;0.70;0.70;;;17.00;95.30;;;;;;4996128;28;20732;-76
2022/05/27 01:06:10;;;;;;;2.35;1.02;;;17.10;95.50;;;;;;4999022;28;20030;-76
2022/05/27 01:08:44;;;;;;;1.20;0.90;;;17.00;95.40;;;;;;4995019;28;20022;-76
2022/05/27 01:11:39;;;;;;;1.10;1.00;;;17.00;95.90;;;;;;4998398;28;20022;-76
2022/05/27 01:14:22;;;;;;;0.80;0.80;;;17.10;96.00;;;;;;4998351;28;20046;-76
2022/05/27 01:17:18;;;;;;;2.20;0.70;;;17.10;96.10;;;;;;4996165;28;20033;-75
2022/05/27 01:20:19;;;;;;;1.50;0.63;;;17.10;96.10;;;;;;4991944;28;20101;-75
2022/05/27 01:23:32;;;;;;;1.40;0.90;;;17.10;96.10;;;;;;4996790;28;20022;-75
2022/05/27 01:26:19;;;;;;;1.50;0.70;;;17.10;96.50;;;;;;4997019;28;20034;-75
2022/05/27 01:29:13;;;;;;;0.70;0.57;;;17.10;96.50;;;;;;4993246;28;20352;-76
2022/05/27 01:31:46;;;;;;;1.15;0.60;;;17.10;96.70;;;;;;4994022;28;20264;-75
2022/05/27 01:34:28;;;;;;;1.80;1.23;;;17.10;96.80;;;;;;4979859;28;20105;-75
2022/05/27 01:37:23;;;;;;;1.75;0.80;;;17.00;96.80;;;;;;4994679;28;20030;-75
2022/05/27 01:40:08;;;;;;;0.80;0.50;;;17.10;96.80;;;;;;4977769;28;20029;-74
2022/05/27 01:42:48;;;;;;;0.98;0.60;;;17.00;96.80;;;;;;4994300;28;20638;-75
2022/05/27 01:45:28;;;;;;;3.08;0.80;;;17.00;96.90;;;;;;4996261;28;20033;-75
2022/05/27 01:48:23;;;;;;;1.63;0.73;;;17.00;96.80;;;;;;4997380;28;20014;-75
2022/05/27 01:51:04;;;;;;;1.67;0.77;;;16.90;96.80;;;;;;4995461;28;20554;-76
2022/05/27 01:53:45;;;;;;;1.00;0.70;;;16.90;96.80;;;;;;4994677;28;20513;-76
2022/05/27 01:56:24;;;;;;;2.15;0.70;;;16.90;96.70;;;;;;4996262;28;20029;-75
2022/05/27 01:58:53;;;;;;;1.80;1.08;;;16.90;97.00;;;;;;4995797;28;20036;-75
2022/05/27 02:01:49;;;;;;;2.85;1.00;;;16.80;96.90;;;;;;4997662;28;20022;-76
2022/05/27 02:04:25;;;;;;;1.25;0.80;;;16.80;97.00;;;;;;4995311;28;20638;-77
2022/05/27 02:07:18;;;;;;;2.15;1.33;;;16.80;97.20;;;;;;4998843;28;20640;-75
2022/05/27 02:09:58;;;;;;;1.05;0.90;;;16.80;97.20;;;;;;4992157;28;20029;-76
2022/05/27 02:12:43;;;;;;;1.65;0.70;;;16.70;97.20;;;;;;4997777;28;20014;-76
2022/05/27 02:15:13;;;;;;;1.00;0.70;;;16.80;97.60;;;;;;4997717;28;20026;-76
2022/05/27 02:17:54;;;;;;;1.92;0.90;;;16.80;97.70;;;;;;4994549;28;20018;-76
2022/05/27 02:20:25;;;;;;;1.42;1.00;;;16.80;97.80;;;;;;4998354;28;20129;-75
2022/05/27 02:23:04;;;;;;;2.45;0.77;;;16.70;97.80;;;;;;4999363;28;20414;-76
2022/05/27 02:25:37;;;;;;;1.08;0.70;;;16.70;98.20;;;;;;4994291;28;20116;-77
2022/05/27 02:28:15;;;;;;;1.05;0.90;;;16.60;98.10;;;;;;4999392;28;20030;-76
2022/05/27 02:30:46;;;;;;;0.60;0.57;;;16.60;98.40;;;;;;4992664;28;20100;-76
2022/05/27 02:36:48;;;;;;;1.13;0.90;;;16.60;98.60;;;;;;4998298;28;20021;-76
2022/05/27 02:39:14;;;;;;;0.70;0.70;;;16.60;98.60;;;;;;4999052;28;20080;-75
2022/05/27 02:42:02;;;;;;;1.30;0.70;;;16.60;98.70;;;;;;4994656;28;20026;-76
2022/05/27 02:44:43;;;;;;;1.70;0.70;;;16.60;98.80;;;;;;4994869;28;20053;-76
2022/05/27 02:47:21;;;;;;;2.17;1.00;;;16.60;98.90;;;;;;4999227;28;20038;-76
2022/05/27 02:50:06;;;;;;;1.05;0.82;;;16.60;99.00;;;;;;4990113;28;20018;-76
2022/05/27 02:52:49;;;;;;;0.88;0.80;;;16.60;99.20;;;;;;4999213;28;20010;-76
2022/05/27 02:55:49;;;;;;;3.33;0.90;;;16.50;99.20;;;;;;5003194;28;20014;-76
2022/05/27 02:58:16;;;;;;;4.05;1.10;;;16.50;99.30;;;;;;4998741;28;20025;-76
2022/05/27 03:00:44;;;;;;;1.75;0.80;;;16.40;99.50;;;;;;4997500;28;20028;-76
2022/05/27 03:03:09;;;;;;;2.03;0.85;;;16.40;99.70;;;;;;5000292;28;20022;-75
2022/05/27 03:06:03;;;;;;;1.55;0.80;;;16.40;99.70;;;;;;4993337;28;20053;-76
2022/05/27 03:08:39;;;;;;;1.13;0.80;;;16.40;99.70;;;;;;4988376;28;20041;-75
2022/05/27 03:11:17;;;;;;;1.13;1.02;;;16.40;99.70;;;;;;4996734;28;20693;-76
2022/05/27 03:14:07;;;;;;;0.80;0.80;;;16.40;99.80;;;;;;4993421;28;20030;-76
2022/05/27 03:16:42;;;;;;;2.42;1.17;;;16.40;99.70;;;;;;4993741;28;20050;-76
2022/05/27 03:19:47;;;;;;;1.25;1.15;;;16.40;99.60;;;;;;4997940;28;20681;-75
2022/05/27 03:22:35;;;;;;;0.80;0.75;;;16.50;99.50;;;;;;4992771;28;20034;-75
2022/05/27 03:25:10;;;;;;;;;;;16.50;99.50;;;;;;4998907;28;20022;-75
2022/05/27 03:28:18;;;;;;;2.67;1.08;;;16.60;99.50;;;;;;4994648;28;19910;-76
2022/05/27 03:31:01;;;;;;;1.73;0.60;;;16.60;99.30;;;;;;4991432;28;20022;-75
2022/05/27 03:33:54;;;;;;;2.03;1.00;;;16.60;99.40;;;;;;4995232;28;20049;-75
2022/05/27 03:36:45;;;;;;;2.05;1.00;;;16.70;99.00;;;;;;4997246;28;20021;-75
2022/05/27 03:39:44;;;;;;;2.90;1.05;;;16.70;99.10;;;;;;4997733;28;20030;-75
2022/05/27 03:42:11;;;;;;;2.08;0.88;;;16.80;99.10;;;;;;4997339;28;20034;-76
2022/05/27 03:44:37;;;;;;;1.58;0.85;;;16.80;98.60;;;;;;4992516;28;20018;-76
2022/05/27 03:47:04;;;;;;;1.38;0.80;;;16.90;98.60;;;;;;4998968;28;20030;-76
2022/05/27 03:49:34;;;;;;;1.17;0.82;;;16.90;98.20;;;;;;4994094;28;20038;-75
2022/05/27 03:52:07;;;;;;;3.30;0.85;;;16.90;98.20;;;;;;4998041;28;20049;-74
2022/05/27 03:54:35;;;;;;;1.10;0.88;;;16.90;98.40;;;;;;4993908;28;20453;-76
2022/05/27 03:57:00;;;;;;;0.80;0.80;;;16.90;98.70;;;;;;4998889;28;20022;-75
2022/05/27 03:59:28;;;;;;;1.53;0.90;;;16.90;98.50;;;;;;5000716;28;20022;-75
2022/05/27 04:01:56;;;;;;;1.75;1.00;;;17.00;98.50;;;;;;4999401;28;20257;-76
2022/05/27 04:04:28;;;;;;;3.55;0.90;;;17.00;98.50;;;;;;5000742;28;20038;-75
2022/05/27 04:07:04;;;;;;;1.70;0.90;;;17.00;98.50;;;;;;4996295;28;20030;-75
2022/05/27 04:09:32;;;;;;;0.85;0.85;;;17.00;98.30;;;;;;4997840;28;20066;-76
2022/05/27 04:11:59;;;;;;;1.40;0.80;;;17.10;98.40;;;;;;5000463;28;20029;-75
2022/05/27 04:14:25;;;;;;;0.95;0.85;;;17.10;98.50;;;;;;5000369;28;20029;-75
2022/05/27 04:17:27;;;;;;;1.85;0.70;;;17.10;98.60;;;;;;4997868;28;20014;-75
2022/05/27 04:19:39;;;;;;;;;;;17.20;98.60;;;;;;4997840;28;20037;-76
2022/05/27 04:22:07;;;;;;;1.45;0.95;;;17.20;98.60;;;;;;5001833;28;19993;-75
2022/05/27 04:24:38;;;;;;;2.70;0.95;;;17.20;98.40;;;;;;4997001;28;20045;-75
2022/05/27 04:27:09;;;;;;;2.30;1.00;;;17.20;98.80;;;;;;5001671;28;20375;-75
2022/05/27 04:29:51;;;;;;;2.00;0.75;;;17.30;98.80;;;;;;4997499;28;20041;-76
2022/05/27 04:32:20;;;;;;;2.05;0.60;;;17.30;98.50;;;;;;4999586;28;20103;-75
2022/05/27 04:34:48;;;;;;;1.15;0.95;;;17.40;98.70;;;;;;4996788;28;20527;-75
2022/05/27 04:37:14;;;;;;;0.82;0.55;;;17.50;98.30;;;;;;4998410;28;20076;-76
2022/05/27 04:39:43;;;;;;;2.30;1.13;;;17.50;98.20;;;;;;4997069;28;20026;-75
2022/05/27 04:42:10;;;;;;;1.85;0.90;;;17.50;98.00;;;;;;5000099;28;20037;-75
2022/05/27 04:44:38;;;;;;;0.80;0.75;;;17.60;98.10;;;;;;4996777;28;20033;-76
2022/05/27 04:47:07;;;;;;;2.47;1.15;;;17.70;98.10;;;;;;5001435;28;20033;-76
2022/05/27 04:52:25;;;;;;;1.15;1.05;;;18.00;97.90;;;;;;5000781;28;20021;-75
2022/05/27 04:54:53;;;;;;;0.77;0.77;;;17.90;97.70;;;;;;4995096;28;20715;-75
2022/05/27 04:57:23;;;;;;;1.27;0.93;;;18.00;97.60;;;;;;4999904;28;20057;-76
2022/05/27 04:59:50;;;;;;;1.30;0.93;;;18.00;97.70;;;;;;4996989;28;20045;-75
2022/05/27 05:02:21;;;;;;;4.13;0.90;;;18.10;97.70;;;;;;4999508;28;20535;-76
2022/05/27 05:04:49;;;;;;;3.80;1.00;;;18.30;98.50;;;;;;4995986;28;20032;-75
2022/05/27 05:07:16;;;;;;;1.15;0.80;;;18.60;98.40;;;;;;4999639;28;20028;-75
2022/05/27 05:09:42;;;;;;;2.00;0.93;;;18.80;98.10;;;;;;4996588;28;20022;-76
2022/05/27 05:12:14;;;;;;;2.03;1.08;;;19.00;97.10;;;;;;5001555;28;20018;-76
2022/05/27 05:14:41;;;;;;;2.47;0.90;;;19.10;96.20;;;;;;4996027;28;20328;-76
2022/05/27 05:17:09;;;;;;;;;;;19.10;95.90;;;;;;4999996;28;20084;-76
2022/05/27 05:19:37;;;;;;;1.38;1.02;;;19.30;95.30;;;;;;4995301;28;19945;-76
2022/05/27 05:22:03;;;;;;;1.48;1.10;;;19.50;95.50;;;;;;4998450;28;20034;-76
2022/05/27 05:24:29;;;;;;;2.80;0.95;;;19.70;94.80;;;;;;5000258;28;20014;-76
2022/05/27 05:26:56;;;;;;;2.47;1.02;;;19.80;94.20;;;;;;5000148;28;20037;-76
2022/05/27 05:29:30;;;;;;;0.68;0.68;;;19.90;94.10;;;;;;5003687;28;20017;-76
2022/05/27 05:32:00;;;;;;;1.55;0.70;;;20.00;94.10;;;;;;4997494;28;20526;-76
2022/05/27 05:34:27;;;;;;;2.03;0.80;;;20.10;93.80;;;;;;5000849;28;20018;-75
2022/05/27 05:37:00;;;;;;;1.88;0.98;;;20.10;93.50;;;;;;4996142;28;20021;-75
2022/05/27 05:39:29;;;;;;;2.20;0.77;;;20.20;93.20;;;;;;4998901;28;20060;-76
2022/05/27 05:41:57;;;;;;;3.03;1.08;;;20.40;93.00;;;;;;4994625;28;20018;-76
2022/05/27 05:44:23;;;;;;;0.70;0.70;;;20.60;92.70;;;;;;4998826;28;20030;-75
2022/05/27 05:46:52;;;;;;;2.20;1.00;;;20.90;92.20;;;;;;4995145;28;20081;-76
2022/05/27 05:49:20;;;;;;;9.50;1.95;;;21.20;90.80;;;;;;5000260;28;20061;-76
2022/05/27 05:52:00;;;;;;;0.70;0.70;;;21.70;90.60;;;;;;4994678;28;20076;-76
2022/05/27 05:54:28;;;;;;;0.73;0.70;;;23.20;88.30;;;;;;4998340;28;20022;-76
2022/05/27 05:56:59;;;;;;;4.85;0.90;;;25.10;82.30;;;;;;4994865;28;20076;-78
2022/05/27 05:59:30;;;;;;;1.10;0.90;;;26.90;76.30;;;;;;4999146;28;20089;-78
2022/05/27 06:01:59;;;;;;;2.13;0.80;;;29.40;69.80;;;;;;4994948;28;20498;-78
2022/05/27 06:04:25;;;;;;;1.77;0.73;;;30.70;63.50;;;;;;4999252;28;20026;-78
2022/05/27 06:06:51;;;;;;;1.73;0.90;;;31.90;59.70;;;;;;4994040;28;20022;-79
2022/05/27 06:09:25;;;;;;;1.30;0.70;;;32.40;56.30;;;;;;4999836;28;20022;-79
2022/05/27 06:11:54;;;;;;;1.40;0.70;;;32.20;55.20;;;;;;4992497;28;20014;-79
2022/05/27 06:14:21;;;;;;;1.23;0.82;;;31.50;54.80;;;;;;4999148;28;20021;-78
2022/05/27 06:16:49;;;;;;;1.40;0.90;;;29.80;56.00;;;;;;4994883;28;20041;-79
2022/05/27 06:19:15;;;;;;;1.10;0.68;;;29.00;57.70;;;;;;4998080;28;20026;-79
2022/05/27 06:21:41;;;;;;;1.23;0.80;;;28.90;57.20;;;;;;4995965;28;20033;-76
2022/05/27 06:24:07;;;;;;;1.55;0.60;;;29.10;57.40;;;;;;4997758;28;20029;-77
2022/05/27 06:26:33;;;;;;;0.93;0.70;;;29.70;57.10;;;;;;5000308;28;20030;-76
2022/05/27 06:34:37;;;;;;;1.08;0.73;;;33.10;52.00;;;;;;4998730;28;20032;-79
2022/05/27 06:37:13;;;;;;;1.00;0.88;;;33.90;50.30;;;;;;4997374;28;20025;-77
2022/05/27 06:39:41;;;;;;;0.80;0.80;;;34.60;49.30;;;;;;4995423;28;20057;-77
2022/05/27 06:42:14;;;;;;;1.10;0.70;;;35.50;47.60;;;;;;4999637;28;20498;-77
2022/05/27 06:44:43;;;;;;;4.22;0.90;;;35.00;46.60;;;;;;4994828;28;20394;-77
2022/05/27 06:47:12;;;;;;;2.65;0.90;;;34.40;47.60;;;;;;4999862;28;20032;-77
2022/05/27 06:49:48;;;;;;;0.85;0.70;;;34.40;47.70;;;;;;4996150;28;20014;-77
2022/05/27 06:52:30;;;;;;;1.05;0.68;;;34.50;47.70;;;;;;4997498;28;20092;-78
2022/05/27 06:54:56;;;;;;;1.85;0.82;;;35.90;46.10;;;;;;4994488;28;20032;-77
2022/05/27 06:57:23;;;;;;;1.35;1.00;;;36.40;45.60;;;;;;4999480;28;20022;-79
2022/05/27 06:59:55;;;;;;;5.97;1.50;;;36.20;44.40;;;;;;4995335;28;20506;-79
2022/05/27 07:02:30;;;;;;;6.32;1.30;;;36.10;44.70;;;;;;4997408;28;20668;-79
2022/05/27 07:04:57;;;;;;;12.88;2.75;;;36.20;44.80;;;;;;4991979;28;20029;-80
2022/05/27 07:07:31;;;;;;;4.10;1.17;;;36.20;44.50;;;;;;4996442;28;20491;-77
2022/05/27 07:09:57;;;;;;;3.92;1.00;;;36.40;44.50;;;;;;4994344;28;20060;-77
2022/05/27 07:12:29;;;;;;;3.50;1.02;;;35.90;43.60;;;;;;4998411;28;20079;-76
2022/05/27 07:14:59;;;;;;;1.38;0.80;;;34.90;43.80;;;;;;4994465;28;20068;-77
2022/05/27 07:17:28;;;;;;;1.65;0.70;;;33.80;45.00;;;;;;4997597;28;20033;-76
2022/05/27 07:20:04;;;;;;;1.90;0.90;;;33.40;45.40;;;;;;4995561;28;20029;-77
2022/05/27 07:22:37;;;;;;;6.00;0.80;;;33.60;45.70;;;;;;4997461;28;20018;-77
2022/05/27 07:25:03;;;;;;;1.38;0.80;;;33.50;45.40;;;;;;4995050;28;20122;-76
2022/05/27 07:27:38;;;;;;;1.45;0.75;;;32.70;46.10;;;;;;4998848;28;20026;-76
2022/05/27 07:30:04;;;;;;;0.98;0.73;;;32.80;46.60;;;;;;4995833;28;20785;-77
2022/05/27 07:32:34;;;;;;;0.63;0.63;;;33.00;46.60;;;;;;4997515;28;20030;-77
2022/05/27 07:35:01;;;;;;;1.58;0.60;;;33.20;46.30;;;;;;4997107;28;20018;-80
2022/05/27 07:37:27;;;;;;;2.70;0.80;;;33.50;45.90;;;;;;5002515;28;20666;-79
2022/05/27 07:39:54;;;;;;;1.95;0.70;;;33.80;45.70;;;;;;4998291;28;20021;-77
2022/05/27 07:42:22;;;;;;;0.82;0.52;;;34.60;45.60;;;;;;5003088;28;20506;-77
2022/05/27 07:44:50;;;;;;;1.00;0.60;;;35.50;44.60;;;;;;4998065;28;20076;-77
2022/05/27 07:47:22;;;;;;;3.13;0.70;;;35.60;43.40;;;;;;5002797;28;20044;-77
2022/05/27 07:49:49;;;;;;;1.20;0.80;;;35.40;44.00;;;;;;4998769;28;20116;-77
2022/05/27 07:52:17;;;;;;;2.28;0.82;;;35.10;44.10;;;;;;5002743;28;20575;-77
2022/05/27 07:54:43;;;;;;;2.45;0.90;;;34.90;44.30;;;;;;4994390;28;20053;-77
2022/05/27 07:57:26;;;;;;;1.23;0.70;;;34.80;43.90;;;;;;4995548;28;20073;-77
2022/05/27 07:59:54;;;;;;;1.60;0.70;;;34.80;44.20;;;;;;4994463;28;20030;-77
2022/05/27 08:02:23;;;;;;;2.35;0.80;;;35.10;43.90;;;;;;4996449;28;20022;-78
2022/05/27 08:04:51;;;;;;;1.10;0.73;;;35.20;43.80;;;;;;5000534;28;20113;-78
2022/05/27 08:07:17;;;;;;;1.30;0.70;;;35.40;43.20;;;;;;4995423;28;20091;-77
2022/05/27 08:09:44;;;;;;;0.88;0.52;;;35.10;43.20;;;;;;5002578;28;20022;-77
2022/05/27 08:12:11;;;;;;;1.52;0.82;;;34.90;43.20;;;;;;4999500;28;20016;-77
2022/05/27 08:17:41;;;;;;;1.25;0.90;;;33.00;45.30;;;;;;4994093;28;20033;-76
2022/05/27 08:20:14;;;;;;;3.10;0.80;;;32.80;45.20;;;;;;5002074;28;20156;-79
2022/05/27 08:22:42;;;;;;;1.00;0.70;;;32.70;45.40;;;;;;4998065;28;20037;-79
2022/05/27 08:25:08;;;;;;;0.50;0.50;;;32.00;45.80;;;;;;5001893;28;20029;-78
2022/05/27 08:27:38;;;;;;;1.00;0.73;;;31.10;47.20;;;;;;4998154;28;20048;-79
2022/05/27 08:30:05;;;;;;;1.95;0.77;;;30.90;47.60;;;;;;4999977;28;20109;-79
2022/05/27 08:32:34;;;;;;;3.25;0.93;;;31.20;47.20;;;;;;4997447;28;20570;-79
2022/05/27 08:38:01;;;;;;;3.08;0.77;;;31.60;47.40;;;;;;5002691;28;20101;-79
2022/05/27 08:40:48;;;;;;;2.83;0.80;;;31.10;47.10;;;;;;4994004;28;20026;-79
2022/05/27 08:43:33;;;;;;;6.72;1.48;;;30.80;47.30;;;;;;4998113;28;20026;-79
2022/05/27 08:46:15;;;;;;;1.90;0.90;;;30.40;48.10;;;;;;4998625;28;20037;-79
2022/05/27 08:48:44;;;;;;;1.85;0.88;;;30.70;47.60;;;;;;4996891;28;20026;-78
2022/05/27 08:51:27;;;;;;;3.55;0.75;;;30.70;48.00;;;;;;5000670;28;20018;-78
2022/05/27 08:54:04;;;;;;;7.25;1.45;;;30.90;48.10;;;;;;4997987;28;20489;-77
2022/05/27 08:59:37;;;;;;;0.77;0.70;;;31.80;47.50;;;;;;4997274;28;20537;-77
2022/05/27 09:02:12;;;;;;;2.08;0.75;;;32.60;46.60;;;;;;5001157;28;20496;-77
2022/05/27 09:04:55;;;;;;;2.43;0.60;;;32.40;45.90;;;;;;4996243;28;20033;-78
2022/05/27 09:07:43;;;;;;;4.60;0.90;;;32.20;46.40;;;;;;4996764;28;20321;-78
2022/05/27 09:10:21;;;;;;;1.17;0.77;;;32.60;46.50;;;;;;4999523;28;20052;-77
2022/05/27 09:13:05;;;;;;;1.70;0.73;;;32.80;46.30;;;;;;4997898;28;20058;-77
2022/05/27 09:15:51;;;;;;;3.63;0.88;;;32.90;46.50;;;;;;4995194;28;20640;-77
2022/05/27 09:18:26;;;;;;;1.70;0.80;;;33.30;45.40;;;;;;4994557;28;20421;-75
2022/05/27 09:21:11;;;;;;;2.13;0.80;;;33.40;46.00;;;;;;5000952;28;20022;-78
2022/05/27 09:24:18;;;;;;;2.05;0.80;;;33.70;45.30;;;;;;4995568;28;20787;-77
2022/05/27 09:27:18;;;;;;;1.02;0.80;;;33.80;45.00;;;;;;4998186;28;20021;-77
2022/05/27 09:30:08;;;;;;;1.35;0.70;;;33.80;44.10;;;;;;4991741;28;20038;-76
2022/05/27 09:36:05;;;;;;;1.02;0.70;;;33.00;45.50;;;;;;4979963;28;20129;-76
2022/05/27 09:38:35;;;;;;;1.30;0.80;;;32.60;45.90;;;;;;4995940;28;20038;-76
2022/05/27 09:41:39;;;;;;;4.32;0.70;;;32.00;47.30;;;;;;4999399;28;20105;-77
2022/05/27 09:44:36;;;;;;;2.28;0.90;;;32.00;46.10;;;;;;4997154;28;20061;-79
2022/05/27 09:47:04;;;;;;;1.65;0.82;;;32.40;46.40;;;;;;5000338;28;20062;-79
2022/05/27 09:49:32;;;;;;;2.28;0.77;;;32.70;45.90;;;;;;4994889;28;21504;-79
2022/05/27 09:51:59;;;;;;;2.58;0.80;;;32.50;45.60;;;;;;5000098;28;20018;-79
2022/05/27 09:54:39;;;;;;;1.63;0.70;;;32.80;45.40;;;;;;4995883;28;20022;-78
2022/05/27 09:57:16;;;;;;;3.00;0.63;;;32.50;45.60;;;;;;5000572;28;20018;-77
2022/05/27 09:59:47;;;;;;;0.65;0.60;;;32.40;45.90;;;;;;4996269;28;20116;-76
2022/05/27 10:02:37;;;;;;;1.65;0.57;;;32.50;46.00;;;;;;5001209;28;20029;-77
2022/05/27 10:05:18;;;;;;;2.60;0.60;;;32.20;46.60;;;;;;4997211;28;20140;-77
2022/05/27 10:07:59;;;;;;;3.25;0.98;;;32.20;46.50;;;;;;4993651;28;20039;-77
2022/05/27 10:10:37;;;;;;;1.08;0.75;;;32.00;46.70;;;;;;4992446;28;20398;-77
2022/05/27 10:13:24;;;;;;;1.80;0.73;;;32.60;46.40;;;;;;4999303;28;20029;-77
2022/05/27 10:15:51;;;;;;;2.28;0.80;;;32.80;45.80;;;;;;4995255;28;20017;-77
2022/05/27 10:18:20;;;;;;;2.53;0.60;;;32.60;46.20;;;;;;5000292;28;20100;-79
2022/05/27 10:24:41;;;;;;;3.13;0.80;;;31.80;47.00;;;;;;4943350;28;20040;-77
2022/05/27 10:27:17;;;;;;;1.42;0.93;;;31.80;45.90;;;;;;4959295;28;20026;-79
2022/05/27 10:29:51;;;;;;;1.55;0.70;;;31.10;47.70;;;;;;4990850;28;20045;-79
2022/05/27 10:32:39;;;;;;;2.10;0.73;;;31.00;47.30;;;;;;4997394;28;20104;-77
2022/05/27 10:35:20;;;;;;;0.82;0.70;;;31.10;47.30;;;;;;4997092;28;20049;-79
2022/05/27 10:38:18;;;;;;;2.50;0.82;;;30.70;47.80;;;;;;4994542;28;20029;-79
2022/05/27 10:41:24;;;;;;;1.25;0.70;;;30.50;47.80;;;;;;4995557;28;20045;-79
2022/05/27 10:44:10;;;;;;;2.50;1.15;;;30.60;48.10;;;;;;4996711;28;20087;-77
2022/05/27 10:46:46;;;;;;;2.67;0.90;;;30.90;47.50;;;;;;4994190;28;20585;-77
2022/05/27 10:49:43;;;;;;;1.35;0.90;;;30.80;48.10;;;;;;4999753;28;20022;-77
2022/05/27 10:52:36;;;;;;;2.75;0.70;;;30.80;48.50;;;;;;4998542;28;20605;-77
2022/05/27 10:55:40;;;;;;;2.67;0.90;;;30.40;49.00;;;;;;4997074;28;20029;-77
2022/05/27 11:04:08;;;;;;;3.92;0.90;;;27.60;51.80;;;;;;4998427;28;20033;-76
2022/05/27 11:07:02;;;;;;;2.22;0.73;;;27.30;53.20;;;;;;4995044;28;20566;-76
2022/05/27 11:10:02;;;;;;;1.75;1.00;;;27.10;53.60;;;;;;4991563;28;20080;-77
2022/05/27 11:16:23;;;;;;;1.25;0.90;;;27.00;55.30;;;;;;4996762;28;20052;-77
2022/05/27 11:19:12;;;;;;;4.80;1.08;;;27.00;55.00;;;;;;4999215;28;20029;-76
2022/05/27 11:22:00;;;;;;;4.63;2.03;;;26.90;54.90;;;;;;4995137;28;20080;-77
2022/05/27 11:24:55;;;;;;;4.85;1.23;;;26.80;55.70;;;;;;4991920;28;20041;-77
2022/05/27 11:27:50;;;;;;;5.68;1.00;;;26.80;54.80;;;;;;4995744;28;20032;-77
2022/05/27 11:30:50;;;;;;;3.33;1.08;;;26.80;54.80;;;;;;4999144;28;20018;-77
2022/05/27 11:33:41;;;;;;;1.23;1.10;;;26.80;54.80;;;;;;4994712;28;20073;-76
2022/05/27 11:36:45;;;;;;;1.77;1.08;;;26.40;55.50;;;;;;4997921;28;20037;-76
2022/05/27 11:39:29;;;;;;;2.30;0.90;;;26.20;55.40;;;;;;4998031;28;20018;-76
2022/05/27 11:42:38;;;;;;;1.20;1.00;;;26.20;55.30;;;;;;4999061;28;20026;-76
2022/05/27 11:45:26;;;;;;;0.85;0.85;;;26.20;55.80;;;;;;4998448;28;20029;-76
2022/05/27 11:47:59;;;;;;;1.58;0.88;;;26.20;56.00;;;;;;4994200;28;20475;-77
2022/05/27 11:50:53;;;;;;;1.55;1.08;;;26.30;57.10;;;;;;4997695;28;20022;-76
2022/05/27 11:53:41;;;;;;;3.78;1.23;;;26.50;56.70;;;;;;4994788;28;20359;-76
2022/05/27 11:56:33;;;;;;;3.70;1.30;;;26.50;56.30;;;;;;4997233;28;20493;-77
2022/05/27 11:59:21;;;;;;;1.02;0.90;;;26.50;56.70;;;;;;4997057;28;20029;-76
2022/05/27 12:01:55;;;;;;;0.90;0.80;;;26.50;56.90;;;;;;4991611;28;21043;-76
2022/05/27 12:04:43;;;;;;;1.25;0.80;;;26.50;56.50;;;;;;4996112;28;20017;-76
2022/05/27 12:07:23;;;;;;;1.00;1.00;;;26.60;56.30;;;;;;4997731;28;20077;-76
2022/05/27 12:10:22;;;;;;;1.25;0.75;;;26.50;56.30;;;;;;4992024;28;20026;-77
2022/05/27 12:13:14;;;;;;;4.35;0.82;;;26.50;56.80;;;;;;4990788;28;20022;-76
2022/05/27 12:15:58;;;;;;;0.90;0.82;;;26.40;56.50;;;;;;4992690;28;20022;-77
2022/05/27 12:18:38;;;;;;;1.85;0.90;;;26.30;56.60;;;;;;4997081;28;20022;-76
2022/05/27 12:21:16;;;;;;;2.67;0.90;;;26.20;57.60;;;;;;5000636;28;20033;-76
2022/05/27 12:24:08;;;;;;;1.25;1.10;;;26.20;57.30;;;;;;4996527;28;20104;-77
2022/05/27 12:26:36;;;;;;;2.97;0.75;;;26.30;57.10;;;;;;4997132;28;20073;-76
2022/05/27 12:29:06;;;;;;;1.10;0.80;;;26.40;57.30;;;;;;5002820;28;20108;-76
2022/05/27 12:31:43;;;;;;;3.60;0.88;;;26.50;57.10;;;;;;4997169;28;20084;-76
2022/05/27 12:34:30;;;;;;;1.38;1.00;;;26.70;56.60;;;;;;5000448;28;20017;-76
2022/05/27 12:37:21;;;;;;;1.25;0.77;;;26.80;56.50;;;;;;4999819;28;20021;-76
2022/05/27 12:39:50;;;;;;;2.05;0.82;;;26.80;56.70;;;;;;4992759;28;20891;-76
2022/05/27 12:42:26;;;;;;;1.00;0.90;;;26.80;55.50;;;;;;4999618;28;20014;-76
2022/05/27 12:44:52;;;;;;;;;;;26.50;56.00;;;;;;5000072;28;20104;-76
2022/05/27 12:47:28;;;;;;;2.58;0.80;;;26.50;55.80;;;;;;5001871;28;19996;-76
2022/05/27 12:50:11;;;;;;;1.77;1.10;;;26.50;55.50;;;;;;5000434;28;20033;-76
2022/05/27 13:02:19;;;;;;;0.82;0.77;;;26.30;56.30;;;;;;5006496;28;20032;-76
2022/05/27 13:05:06;;;;;;;3.22;0.80;;;26.30;56.20;;;;;;4998163;28;20037;-76
2022/05/27 13:07:37;;;;;;;;;;;26.40;55.70;;;;;;4994985;28;20022;-77
2022/05/27 13:10:20;;;;;;;1.33;0.63;;;26.40;55.90;;;;;;5000616;28;19982;-76
2022/05/27 13:13:01;;;;;;;1.85;0.90;;;26.50;56.20;;;;;;4993788;28;20010;-76
2022/05/27 13:15:34;;;;;;;0.60;0.60;;;26.50;55.60;;;;;;4996244;28;20017;-77
2022/05/27 13:18:20;;;;;;;2.58;0.80;;;26.50;55.80;;;;;;4999449;28;20022;-77
2022/05/27 13:21:09;;;;;;;2.80;0.90;;;26.40;56.00;;;;;;4993771;28;20780;-76
2022/05/27 13:24:00;;;;;;;2.90;0.98;;;26.40;56.90;;;;;;4997321;28;20050;-77
2022/05/27 13:27:05;;;;;;;1.95;0.90;;;26.40;56.50;;;;;;4997500;28;20485;-76
2022/05/27 13:29:55;;;;;;;2.28;0.80;;;26.40;56.90;;;;;;4994976;28;20376;-77
2022/05/27 13:32:30;;;;;;;2.78;0.90;;;26.30;56.20;;;;;;4996916;28;20507;-76
2022/05/27 13:35:14;;;;;;;3.50;1.00;;;26.40;56.40;;;;;;4997197;28;20104;-76
2022/05/27 13:37:51;;;;;;;2.45;0.68;;;26.40;56.40;;;;;;4995697;28;20455;-76
2022/05/27 13:40:29;;;;;;;;;;;26.40;55.80;;;;;;4999277;28;20032;-76
2022/05/27 13:43:17;;;;;;;2.20;0.80;;;26.30;55.00;;;;;;4997879;28;19901;-76
2022/05/27 13:45:49;;;;;;;1.55;0.65;;;26.20;55.40;;;;;;4992526;28;20442;-76
2022/05/27 13:48:31;;;;;;;2.45;0.70;;;26.20;55.30;;;;;;4997756;28;20727;-76
2022/05/27 13:51:24;;;;;;;2.22;0.85;;;26.20;56.00;;;;;;4998828;28;20022;-76
2022/05/27 13:53:52;;;;;;;0.80;0.80;;;26.40;56.00;;;;;;4995373;28;20045;-76
2022/05/27 13:56:37;;;;;;;0.77;0.63;;;26.40;56.00;;;;;;5000444;28;20017;-75
2022/05/27 13:59:18;;;;;;;1.55;0.75;;;26.50;56.40;;;;;;4999398;28;20026;-75
2022/05/27 14:01:51;;;;;;;1.55;0.80;;;26.50;56.30;;;;;;4994372;28;20391;-76
2022/05/27 14:04:52;;;;;;;1.00;0.47;;;26.40;55.00;;;;;;4996258;28;20018;-76
2022/05/27 14:07:36;;;;;;;1.30;0.60;;;26.30;55.30;;;;;;5014634;28;20037;-76
2022/05/27 14:10:16;;;;;;;1.63;0.75;;;26.20;55.00;;;;;;5001121;28;20108;-76
2022/05/27 14:12:42;;;;;;;0.85;0.80;;;26.20;55.50;;;;;;4996535;28;20084;-75
2022/05/27 14:15:24;;;;;;;1.27;0.65;;;26.20;56.30;;;;;;4999618;28;20021;-76
2022/05/27 14:18:03;;;;;;;1.70;0.55;;;26.10;56.00;;;;;;4992946;28;20028;-76
2022/05/27 14:23:28;;;;;;;0.85;0.60;;;25.80;55.70;;;;;;4998259;28;20446;-76
2022/05/27 14:26:04;;;;;;;1.88;0.95;;;25.80;55.80;;;;;;4995453;28;20610;-76
2022/05/27 14:28:34;;;;;;;3.35;0.73;;;25.80;56.70;;;;;;4998300;28;20017;-75